Time;durP1;ratioP1;P1;durP2;ratioP2;P2;SDS_P1;SDS_P2;PMS_P1;PMS_P2;Temp;Humidity;BMP_temperature;BMP_pressure;BME280_temperature;BME280_humidity;BME280_pressure;Samples;Min_cycle;Max_cycle;Signal;HPM_P1;HPM_P2
2022/12/04 00:04:43;;;;;;;50.40;27.40;;;;;;;3.90;72.35;99762.36;226398;1244;138396;-66
2022/12/04 00:09:46;;;;;;;51.60;26.50;;;;;;;3.90;72.57;99762.18;226272;1258;137593;-65
2022/12/04 00:14:49;;;;;;;54.00;26.10;;;;;;;3.89;72.69;99764.67;226345;1241;138426;-65
2022/12/04 00:20:16;;;;;;;48.90;26.20;;;;;;;3.91;72.82;99760.75;224767;1237;138170;-64
2022/12/04 00:25:30;;;;;;;48.40;25.70;;;;;;;4.00;72.60;99754.92;224383;1237;137886;-64
2022/12/04 00:31:24;;;;;;;49.60;25.70;;;;;;;4.05;72.64;99750.77;223852;1237;138829;-63
2022/12/04 00:37:03;;;;;;;47.70;26.20;;;;;;;4.08;72.55;99749.46;224391;1236;137759;-63
2022/12/04 00:42:53;;;;;;;51.80;26.00;;;;;;;4.09;72.48;99752.06;224699;1234;137999;-63
2022/12/04 00:49:01;;;;;;;48.90;26.30;;;;;;;4.06;72.59;99753.38;223441;1246;107682;-63
2022/12/04 00:54:52;;;;;;;49.10;26.20;;;;;;;4.06;72.80;99750.74;225140;1246;137706;-62
2022/12/04 01:00:10;;;;;;;47.90;26.20;;;;;;;4.02;72.88;99738.35;225928;1247;137879;-64
2022/12/04 01:10:55;;;;;;;53.40;26.80;;;;;;;4.05;73.26;99734.96;221299;1254;634899;-62
2022/12/04 01:17:29;;;;;;;52.20;27.70;;;;;;;4.14;73.06;99729.14;222568;1245;137501;-61
2022/12/04 01:36:51;;;;;;;;;;;;;;;;;;;;;
2022/12/04 01:44:40;;;;;;;49.10;24.90;;;;;;;4.13;72.85;99697.36;223277;1243;137974;-62
2022/12/04 01:50:22;;;;;;;47.80;24.70;;;;;;;4.10;73.22;99701.84;223949;1240;137384;-61
2022/12/04 01:57:45;;;;;;;47.50;25.20;;;;;;;4.09;73.34;99697.48;223474;1246;137666;-62
2022/12/04 02:03:13;;;;;;;43.90;24.20;;;;;;;4.14;73.14;99684.17;223732;1244;138403;-61
2022/12/04 02:16:34;;;;;;;;;;;;;;;;;;;;;
2022/12/04 02:23:30;;;;;;;44.20;25.00;;;;;;;4.37;72.78;99687.42;223612;1235;137320;-61
2022/12/04 02:29:44;;;;;;;41.50;22.20;;;;;;;4.34;72.54;99687.16;223654;1238;137302;-63
2022/12/04 02:35:59;;;;;;;41.40;22.20;;;;;;;4.26;72.91;99689.46;223609;1239;137514;-63
2022/12/04 02:42:21;;;;;;;40.80;22.10;;;;;;;4.20;72.79;99696.12;223195;1241;137611;-63
2022/12/04 02:59:19;;;;;;;39.40;22.40;;;;;;;4.27;72.74;99692.09;221587;1250;636220;-63
2022/12/04 03:21:11;;;;;;;;;;;;;;;;;;;;;
2022/12/04 03:28:14;;;;;;;33.90;18.70;;;;;;;4.17;72.63;99697.98;223657;1239;94985;-64
2022/12/04 03:40:37;;;;;;;;;;;;;;;;;;;;;
2022/12/04 03:48:12;;;;;;;33.90;19.10;;;;;;;4.17;72.99;99702.16;221803;1250;636173;-63
2022/12/04 03:54:33;;;;;;;;;;;;;;;;;;;;;
2022/12/04 04:00:41;;;;;;;32.70;19.10;;;;;;;4.26;72.88;99696.84;224007;1238;137101;-63
2022/12/04 04:26:08;;;;;;;31.80;18.70;;;;;;;4.13;72.33;99703.33;222548;1243;137508;-65
2022/12/04 04:32:48;;;;;;;33.20;17.60;;;;;;;4.08;72.61;99705.23;223173;1240;138089;-64
2022/12/04 04:40:01;;;;;;;;;;;;;;;;;;;;;
2022/12/04 04:46:15;;;;;;;31.00;17.50;;;;;;;4.16;72.61;99698.34;225315;1237;137711;-65
2022/12/04 04:59:28;;;;;;;28.90;18.00;;;;;;;4.19;72.43;99678.09;223682;1256;636711;-64
2022/12/04 05:05:28;;;;;;;29.60;17.30;;;;;;;4.16;71.97;99679.05;227573;1234;138831;-64
2022/12/04 05:11:18;;;;;;;30.80;17.30;;;;;;;4.09;72.31;99692.73;227280;1234;137576;-63
2022/12/04 05:17:13;;;;;;;29.80;16.40;;;;;;;4.07;72.36;99697.88;227195;1241;138179;-62
2022/12/04 05:22:42;;;;;;;;;;;;;;;;;;;;;
2022/12/04 05:28:01;;;;;;;30.40;17.10;;;;;;;4.11;72.26;99690.23;226651;1239;138653;-63
2022/12/04 05:33:45;;;;;;;30.60;18.00;;;;;;;4.24;72.27;99681.64;227216;1231;138314;-65
2022/12/04 05:39:16;;;;;;;29.50;17.20;;;;;;;4.30;71.92;99682.87;226825;1241;138212;-64
2022/12/04 05:44:35;;;;;;;28.70;16.80;;;;;;;4.25;71.85;99686.85;226778;1234;138415;-65
2022/12/04 05:50:01;;;;;;;28.80;16.60;;;;;;;4.24;71.68;99688.28;226907;1233;137518;-63
2022/12/04 05:55:38;;;;;;;27.30;15.60;;;;;;;4.22;71.54;99695.02;227213;1248;138765;-62
2022/12/04 06:00:46;;;;;;;27.90;16.60;;;;;;;4.20;71.80;99702.11;227161;1240;137735;-62
2022/12/04 06:06:10;;;;;;;88.50;57.00;;;;;;;4.20;72.04;99703.35;227280;1241;137684;-63
2022/12/04 06:11:46;;;;;;;27.00;16.10;;;;;;;4.25;72.56;99703.90;227804;1230;138284;-63
2022/12/04 06:17:08;;;;;;;23.90;15.60;;;;;;;4.31;71.61;99709.20;227886;1234;138644;-63
2022/12/04 06:22:12;;;;;;;29.80;17.30;;;;;;;4.37;71.86;99709.91;227721;1234;138364;-64
2022/12/04 06:27:56;;;;;;;79.00;52.80;;;;;;;4.46;72.05;99703.71;227950;1241;138925;-63
2022/12/04 06:33:04;;;;;;;26.90;16.70;;;;;;;4.49;71.26;99703.09;227882;1233;137716;-64
2022/12/04 06:38:09;;;;;;;23.80;15.00;;;;;;;4.45;71.21;99711.65;227085;1240;138221;-64
2022/12/04 06:43:14;;;;;;;25.00;15.80;;;;;;;4.39;71.51;99712.69;226996;1238;138175;-64
2022/12/04 06:48:24;;;;;;;23.80;14.70;;;;;;;4.34;71.37;99711.23;226783;1238;137905;-64
2022/12/04 06:53:55;;;;;;;21.30;13.60;;;;;;;4.32;71.41;99712.52;226632;1238;137801;-65
2022/12/04 07:04:55;;;;;;;21.10;13.40;;;;;;;4.36;71.73;99704.86;227074;1232;140079;-65
2022/12/04 07:10:00;;;;;;;20.50;13.30;;;;;;;4.37;71.40;99695.86;227114;1232;138476;-62
2022/12/04 07:15:14;;;;;;;21.30;13.60;;;;;;;4.43;71.23;99686.22;226881;1241;138137;-65
2022/12/04 07:20:34;;;;;;;22.90;14.00;;;;;;;4.50;71.37;99689.70;226974;1240;138528;-63
2022/12/04 07:25:40;;;;;;;19.70;13.10;;;;;;;4.52;71.13;99691.44;227145;1234;137619;-62
2022/12/04 07:30:48;;;;;;;158.30;100.90;;;;;;;4.53;71.12;99697.57;227021;1234;137723;-62
2022/12/04 07:36:07;;;;;;;25.00;15.80;;;;;;;4.58;71.62;99698.33;227305;1233;138697;-65
2022/12/04 07:41:22;;;;;;;22.90;14.00;;;;;;;4.56;71.15;99696.08;226656;1238;137699;-63
2022/12/04 07:46:29;;;;;;;22.10;13.60;;;;;;;4.54;71.39;99695.24;226738;1241;138498;-63
2022/12/04 07:51:37;;;;;;;20.50;13.20;;;;;;;4.53;71.23;99690.34;227940;1225;137892;-63
2022/12/04 07:56:46;;;;;;;20.90;13.00;;;;;;;4.52;70.99;99689.32;226954;1236;138003;-64
2022/12/04 08:01:53;;;;;;;20.30;12.80;;;;;;;4.54;71.12;99689.44;227826;1241;140271;-63
2022/12/04 08:07:10;;;;;;;18.80;12.60;;;;;;;4.61;70.87;99683.27;226856;1231;138730;-63
2022/12/04 08:12:15;;;;;;;23.50;14.00;;;;;;;4.70;70.96;99672.49;227115;1249;141475;-66
2022/12/04 08:17:32;;;;;;;22.70;13.70;;;;;;;4.77;70.89;99676.14;226885;1242;138472;-64
2022/12/04 08:22:39;;;;;;;20.10;12.30;;;;;;;4.77;70.85;99675.63;226732;1238;137868;-64
2022/12/04 08:27:47;;;;;;;19.70;13.20;;;;;;;4.73;70.89;99678.91;226824;1235;138308;-63
2022/12/04 08:32:55;;;;;;;21.00;14.30;;;;;;;4.71;70.61;99687.74;227042;1240;137906;-63
2022/12/04 08:38:00;;;;;;;19.30;13.20;;;;;;;4.72;70.90;99698.26;227126;1238;137723;-65
2022/12/04 08:43:58;;;;;;;23.20;15.70;;;;;;;4.82;71.66;99692.90;227130;1233;138438;-66
2022/12/04 08:49:55;;;;;;;19.70;13.40;;;;;;;4.82;70.88;99690.61;227287;1233;138086;-64
2022/12/04 08:55:36;;;;;;;19.60;13.30;;;;;;;4.81;70.75;99697.85;227103;1233;138760;-66
2022/12/04 09:00:55;;;;;;;21.20;12.90;;;;;;;4.92;71.00;99706.14;227088;1230;139463;-63
2022/12/04 09:06:01;;;;;;;22.00;13.70;;;;;;;4.96;70.74;99702.33;227937;1240;138678;-63
2022/12/04 09:11:10;;;;;;;;;;;;;;;4.99;70.70;99697.48;226839;1249;138299;-62
2022/12/04 09:16:25;;;;;;;;;;;;;;;5.03;70.50;99696.16;226874;1234;124240;-63
2022/12/04 09:21:42;;;;;;;;;;;;;;;5.02;70.17;99703.39;227120;1238;124127;-62
2022/12/04 09:26:45;;;;;;;;;;;;;;;5.04;70.66;99710.39;227042;1252;124834;-63
2022/12/04 09:31:49;;;;;;;;;;;;;;;5.12;71.38;99700.98;227236;1240;125358;-63
2022/12/04 09:36:54;;;;;;;;;;;;;;;5.18;70.67;99694.66;226682;1244;124132;-63
2022/12/04 09:42:09;;;;;;;;;;;;;;;5.19;70.30;99689.88;227011;1231;124289;-62
2022/12/04 09:47:18;;;;;;;;;;;;;;;5.18;70.28;99686.23;227002;1242;124441;-62
2022/12/04 09:52:55;;;;;;;;;;;;;;;;;;;;;
2022/12/04 09:58:00;;;;;;;;;;;;;;;5.27;71.67;99669.95;226935;1241;124937;-63
2022/12/04 10:03:06;;;;;;;;;;;;;;;5.42;70.85;99664.38;226992;1240;125092;-62
2022/12/04 10:09:04;;;;;;;;;;;;;;;5.56;70.53;99652.50;227070;1240;124583;-63
2022/12/04 10:14:28;;;;;;;;;;;;;;;5.75;70.28;99650.31;227133;1255;124488;-62
2022/12/04 10:19:43;;;;;;;;;;;;;;;5.79;69.65;99638.73;227195;1234;124568;-62
2022/12/04 10:24:52;;;;;;;;;;;;;;;5.85;69.60;99619.17;227016;1241;124415;-64
2022/12/04 10:30:02;;;;;;;;;;;;;;;5.97;70.36;99606.45;227928;1231;123927;-63
2022/12/04 10:35:18;;;;;;;;;;;;;;;6.09;69.71;99598.84;227941;1234;124785;-62
2022/12/04 10:40:29;;;;;;;;;;;;;;;6.13;69.48;99597.11;226763;1240;123893;-64
2022/12/04 10:45:32;;;;;;;;;;;;;;;6.16;69.46;99587.48;226484;1247;124401;-62
2022/12/04 10:50:36;;;;;;;;;;;;;;;6.23;69.49;99592.38;226804;1238;124366;-64
2022/12/04 10:55:40;;;;;;;;;;;;;;;6.25;69.50;99589.64;227120;1241;123669;-63
2022/12/04 11:00:46;;;;;;;;;;;;;;;6.29;69.59;99592.48;227037;1241;124178;-63
2022/12/04 11:05:54;;;;;;;;;;;;;;;6.41;69.98;99585.71;226900;1239;124718;-65
2022/12/04 11:11:01;;;;;;;;;;;;;;;6.47;69.13;99575.84;227004;1241;124232;-66
2022/12/04 11:16:06;;;;;;;;;;;;;;;6.49;69.32;99573.99;227100;1231;124242;-64
2022/12/04 11:21:16;;;;;;;;;;;;;;;6.60;69.67;99570.39;227073;1251;123820;-67
2022/12/04 11:26:34;;;;;;;;;;;;;;;6.62;68.99;99566.80;227113;1235;124226;-64
2022/12/04 11:31:41;;;;;;;;;;;;;;;6.62;69.00;99561.70;227091;1239;124694;-65
2022/12/04 11:36:52;;;;;;;;;;;;;;;6.66;68.65;99565.23;227988;1218;124380;-64
2022/12/04 11:42:05;;;;;;;;;;;;;;;6.69;68.48;99566.88;227061;1236;124401;-64
2022/12/04 11:47:16;;;;;;;;;;;;;;;6.77;68.59;99567.11;227168;1241;125042;-65
2022/12/04 11:52:28;;;;;;;;;;;;;;;6.89;68.56;99568.08;227197;1241;124236;-66
2022/12/04 11:57:42;;;;;;;;;;;;;;;7.01;68.59;99564.44;228064;1234;124162;-63
2022/12/04 12:05:40;;;;;;;41.30;26.40;;;;;;;7.27;68.93;99558.42;221220;1246;655715;-67
2022/12/04 12:11:18;;;;;;;19.50;13.70;;;;;;;7.30;67.87;99562.03;223168;1240;137445;-66
2022/12/04 12:17:45;;;;;;;19.30;13.40;;;;;;;7.30;67.88;99568.92;222513;1241;137506;-68
2022/12/04 12:23:25;;;;;;;171.30;113.00;;;;;;;7.27;67.99;99567.63;222943;1240;137468;-67
2022/12/04 12:29:09;;;;;;;22.60;14.50;;;;;;;7.34;68.56;99559.75;222809;1240;138647;-65
2022/12/04 12:34:33;;;;;;;20.70;13.30;;;;;;;7.40;67.86;99555.81;224831;1234;137313;-66
2022/12/04 12:40:20;;;;;;;25.20;14.00;;;;;;;7.50;67.97;99552.05;224646;1234;137350;-65
2022/12/04 12:45:56;;;;;;;18.40;12.90;;;;;;;7.58;67.70;99542.87;224513;1234;138186;-64
2022/12/04 12:51:26;;;;;;;20.60;13.60;;;;;;;7.50;67.35;99548.52;224672;1233;137462;-64
2022/12/04 12:57:13;;;;;;;113.20;77.50;;;;;;;7.44;67.72;99539.21;224904;1233;137747;-65
2022/12/04 13:02:56;;;;;;;23.80;15.40;;;;;;;7.42;67.48;99543.89;224789;1234;137844;-65
2022/12/04 13:08:22;;;;;;;37.10;23.60;;;;;;;7.41;67.50;99544.13;224620;1233;138428;-66
2022/12/04 13:13:34;;;;;;;28.00;17.80;;;;;;;7.50;68.29;99539.34;224714;1234;140451;-64
2022/12/04 13:19:05;;;;;;;21.90;14.20;;;;;;;7.52;67.59;99540.13;224792;1238;138056;-65
2022/12/04 13:24:49;;;;;;;22.20;15.50;;;;;;;7.48;67.35;99539.10;225066;1233;137775;-64
2022/12/04 13:30:18;;;;;;;26.00;15.50;;;;;;;7.42;67.21;99536.16;225122;1233;138602;-63
2022/12/04 13:35:29;;;;;;;19.00;12.80;;;;;;;7.31;67.30;99542.91;225109;1234;137770;-65
2022/12/04 13:40:55;;;;;;;19.30;13.80;;;;;;;7.22;67.04;99551.23;224791;1234;137728;-65
2022/12/04 13:46:54;;;;;;;17.80;12.70;;;;;;;7.10;67.02;99555.23;224824;1227;138260;-65
2022/12/04 13:52:43;;;;;;;24.60;16.10;;;;;;;7.03;67.99;99560.11;224659;1236;138243;-65
2022/12/04 13:58:33;;;;;;;20.70;14.00;;;;;;;6.94;67.35;99562.40;223907;1239;138930;-67
2022/12/04 14:04:08;;;;;;;20.80;13.50;;;;;;;6.78;67.11;99560.88;223569;1240;138249;-66
2022/12/04 14:10:26;;;;;;;215.20;142.30;;;;;;;6.68;67.66;99559.68;224220;1237;137591;-65
2022/12/04 14:16:34;;;;;;;22.10;15.00;;;;;;;6.71;68.00;99562.92;224645;1233;138652;-65
2022/12/04 14:21:58;;;;;;;20.60;14.20;;;;;;;6.53;67.12;99562.00;224668;1234;138326;-68
2022/12/04 14:27:40;;;;;;;22.80;14.70;;;;;;;6.42;67.14;99562.44;224739;1233;138597;-67
2022/12/04 14:33:19;;;;;;;22.40;15.00;;;;;;;6.34;67.04;99562.70;224862;1228;138053;-65
2022/12/04 14:39:30;;;;;;;21.20;14.80;;;;;;;6.22;66.77;99557.52;224943;1237;138048;-66
2022/12/04 14:45:09;;;;;;;22.20;15.00;;;;;;;6.06;66.71;99563.20;224952;1233;137533;-67
2022/12/04 14:58:28;;;;;;;29.90;18.20;;;;;;;5.80;67.39;99566.33;223894;1237;138504;-68
2022/12/04 15:04:52;;;;;;;25.20;16.60;;;;;;;5.65;67.16;99578.47;225252;1233;137896;-66
2022/12/04 15:17:02;;;;;;;22.90;14.90;;;;;;;5.34;67.47;99577.70;224724;1234;137576;-66
2022/12/04 15:22:58;;;;;;;;;;;;;;;;;;;;;
2022/12/04 15:36:43;;;;;;;;;;;;;;;;;;;;;
2022/12/04 15:43:09;;;;;;;35.70;18.80;;;;;;;5.20;68.24;99585.04;222506;1244;138023;-64
2022/12/04 15:49:42;;;;;;;25.30;14.90;;;;;;;5.13;67.58;99582.23;221263;1250;635040;-66
2022/12/04 15:56:51;;;;;;;21.20;15.10;;;;;;;5.04;67.58;99596.25;221291;1256;137719;-64
2022/12/04 16:02:04;;;;;;;22.90;14.90;;;;;;;4.92;67.75;99595.02;223621;1239;138115;-65
2022/12/04 16:07:40;;;;;;;22.90;15.00;;;;;;;4.82;67.60;99603.95;223625;1234;137925;-65
2022/12/04 16:15:18;;;;;;;;;;;;;;;;;;;;;
2022/12/04 16:21:28;;;;;;;22.80;14.20;;;;;;;4.74;68.20;99607.00;222914;1240;138181;-65
2022/12/04 16:27:04;;;;;;;23.80;15.20;;;;;;;4.66;68.34;99607.39;222332;1243;137845;-65
2022/12/04 16:32:18;;;;;;;158.30;105.80;;;;;;;4.65;69.16;99604.81;222700;1240;138846;-65
2022/12/04 16:38:03;;;;;;;25.10;17.00;;;;;;;4.85;69.39;99597.36;222517;1242;138628;-65
2022/12/04 16:43:31;;;;;;;27.70;17.20;;;;;;;4.88;68.27;99598.11;222921;1233;138816;-65
2022/12/04 16:48:42;;;;;;;22.30;15.80;;;;;;;4.87;68.15;99604.14;222820;1232;138164;-66
2022/12/04 16:54:01;;;;;;;26.50;16.90;;;;;;;4.85;68.31;99602.26;222330;1240;138126;-66
2022/12/04 16:59:12;;;;;;;24.40;16.00;;;;;;;4.83;68.29;99608.30;223200;1241;138369;-64
2022/12/04 17:05:23;;;;;;;24.20;16.20;;;;;;;4.78;68.39;99604.24;223519;1240;137799;-65
2022/12/04 17:10:28;;;;;;;25.00;16.20;;;;;;;4.71;68.67;99610.59;223531;1234;138762;-65
2022/12/04 17:15:35;;;;;;;26.50;16.40;;;;;;;4.64;68.71;99608.33;223167;1238;139143;-65
2022/12/04 17:20:41;;;;;;;26.20;15.90;;;;;;;4.60;68.99;99617.23;223424;1238;137573;-66
2022/12/04 17:25:46;;;;;;;196.00;120.60;;;;;;;4.56;69.46;99613.46;223684;1238;138064;-67
2022/12/04 17:30:57;;;;;;;25.90;16.40;;;;;;;4.63;69.92;99611.36;223596;1231;138309;-65
2022/12/04 17:36:12;;;;;;;23.50;15.30;;;;;;;4.62;69.14;99606.45;223392;1239;138630;-68
2022/12/04 17:41:16;;;;;;;25.60;16.00;;;;;;;4.67;69.29;99606.50;224323;1231;138693;-67
2022/12/04 17:46:23;;;;;;;26.80;16.40;;;;;;;4.66;68.94;99612.13;224566;1230;137672;-66
2022/12/04 17:51:28;;;;;;;28.00;16.90;;;;;;;4.68;69.07;99610.31;224284;1236;138011;-67
2022/12/04 17:56:33;;;;;;;24.50;15.60;;;;;;;4.66;68.99;99610.21;224324;1229;137860;-66
2022/12/04 18:01:38;;;;;;;25.80;15.90;;;;;;;4.62;69.18;99609.96;224257;1236;138429;-65
2022/12/04 18:06:45;;;;;;;24.40;15.00;;;;;;;4.59;69.61;99611.29;225784;1237;137875;-65
2022/12/04 18:11:55;;;;;;;25.00;16.30;;;;;;;4.55;69.35;99618.08;226329;1241;137797;-65
2022/12/04 18:17:03;;;;;;;23.10;15.90;;;;;;;4.53;69.42;99620.77;227528;1236;138524;-66
2022/12/04 18:22:21;;;;;;;23.30;15.50;;;;;;;4.48;69.34;99615.62;226269;1245;138350;-65
2022/12/04 18:27:37;;;;;;;105.60;72.80;;;;;;;4.46;70.69;99609.38;226384;1237;138060;-66
2022/12/04 18:33:07;;;;;;;25.50;17.00;;;;;;;4.68;71.01;99607.52;226134;1244;139612;-66
2022/12/04 18:38:35;;;;;;;24.40;16.30;;;;;;;4.81;69.24;99611.17;226642;1241;139231;-66
2022/12/04 18:43:42;;;;;;;25.10;16.10;;;;;;;4.78;69.26;99607.75;226696;1231;138209;-65
2022/12/04 18:48:48;;;;;;;23.50;15.20;;;;;;;4.78;69.00;99602.12;226762;1238;137899;-65
2022/12/04 18:54:15;;;;;;;25.00;16.70;;;;;;;4.79;68.87;99602.46;226864;1237;138967;-64
2022/12/04 18:59:42;;;;;;;22.80;15.30;;;;;;;4.75;68.77;99602.04;227296;1234;139009;-65
2022/12/04 19:05:04;;;;;;;23.80;16.60;;;;;;;4.68;68.94;99604.53;224641;1230;138030;-64
2022/12/04 19:10:34;;;;;;;24.40;15.50;;;;;;;4.66;68.87;99604.40;224797;1233;137720;-65
2022/12/04 19:15:58;;;;;;;24.50;16.20;;;;;;;4.62;69.12;99615.25;224796;1237;137705;-65
2022/12/04 19:22:14;;;;;;;23.60;16.10;;;;;;;4.56;69.12;99613.67;224127;1237;137857;-65
2022/12/04 19:28:22;;;;;;;85.00;56.10;;;;;;;4.48;69.74;99622.13;224109;1231;138248;-67
2022/12/04 19:33:49;;;;;;;29.80;18.20;;;;;;;4.72;71.14;99627.80;224501;1234;137980;-64
2022/12/04 19:43:08;;;;;;;28.60;17.10;;;;;;;4.76;69.54;99628.89;221209;1252;659818;-64
2022/12/04 20:01:34;;;;;;;46.90;29.80;;;;;;;4.72;69.90;99619.35;223178;1239;138308;-64
2022/12/04 20:07:13;;;;;;;27.00;17.10;;;;;;;4.70;69.33;99625.38;222494;1239;138297;-62
2022/12/04 20:12:18;;;;;;;;;;;;;;;4.57;69.10;99625.41;222536;1240;137672;-64
2022/12/04 20:17:47;;;;;;;26.80;15.90;;;;;;;4.44;69.08;99616.78;222441;1243;124381;-64
2022/12/04 20:22:55;;;;;;;24.40;15.50;;;;;;;4.37;69.57;99630.52;222611;1242;137369;-65
2022/12/04 20:28:03;;;;;;;25.60;15.90;;;;;;;4.32;69.34;99643.13;222867;1240;137670;-64
2022/12/04 20:33:40;;;;;;;24.90;15.60;;;;;;;4.29;69.70;99641.80;224712;1236;137424;-64
2022/12/04 20:41:24;;;;;;;26.80;17.00;;;;;;;4.33;69.66;99632.74;221596;1251;635171;-65
2022/12/04 20:47:06;;;;;;;34.40;21.80;;;;;;;4.31;69.78;99632.61;223253;1240;138127;-66
2022/12/04 20:52:34;;;;;;;29.50;17.70;;;;;;;4.34;69.85;99617.27;225221;1233;137378;-63
2022/12/04 20:58:27;;;;;;;27.00;16.40;;;;;;;4.33;69.93;99606.39;225222;1233;138210;-64
2022/12/04 21:03:56;;;;;;;27.50;16.40;;;;;;;4.31;69.70;99599.08;226186;1241;137633;-64
2022/12/04 21:09:09;;;;;;;27.80;17.40;;;;;;;4.27;69.81;99600.23;227155;1248;137499;-64
2022/12/04 21:20:06;;;;;;;27.60;17.40;;;;;;;4.14;69.87;99613.23;227066;1227;137513;-65
2022/12/04 21:25:11;;;;;;;27.80;16.50;;;;;;;4.19;70.21;99607.83;227007;1241;138357;-67
2022/12/04 21:30:17;;;;;;;30.50;18.10;;;;;;;4.28;69.69;99607.42;226995;1233;138434;-67
2022/12/04 21:35:20;;;;;;;30.30;17.30;;;;;;;4.35;69.77;99607.03;227134;1241;137827;-67
2022/12/04 21:40:26;;;;;;;28.30;17.30;;;;;;;4.38;69.56;99610.65;227045;1241;138057;-68
2022/12/04 21:45:37;;;;;;;30.30;17.20;;;;;;;4.39;69.57;99608.86;226919;1238;138563;-66
2022/12/04 21:50:51;;;;;;;25.00;15.70;;;;;;;4.33;69.60;99611.14;227065;1236;137552;-64
2022/12/04 21:55:58;;;;;;;25.20;16.80;;;;;;;4.30;69.60;99603.85;227927;1242;137737;-65
2022/12/04 22:01:11;;;;;;;25.20;16.40;;;;;;;4.31;69.82;99603.44;227068;1237;138486;-64
2022/12/04 22:06:16;;;;;;;26.70;16.90;;;;;;;4.27;69.90;99595.85;227054;1235;138186;-67
2022/12/04 22:11:23;;;;;;;24.60;15.90;;;;;;;4.23;69.66;99591.20;227072;1241;227771;-66
2022/12/04 22:16:27;;;;;;;29.70;16.30;;;;;;;4.17;69.67;99593.82;226818;1235;138173;-65
2022/12/04 22:21:33;;;;;;;25.20;16.50;;;;;;;4.19;69.90;99594.11;226988;1238;139003;-64
2022/12/04 22:26:41;;;;;;;30.00;17.30;;;;;;;4.27;69.91;99601.45;227886;1234;138288;-65
2022/12/04 22:31:45;;;;;;;29.30;16.80;;;;;;;4.31;69.81;99607.50;227869;1235;138694;-65
2022/12/04 22:36:56;;;;;;;29.90;17.70;;;;;;;4.33;70.19;99610.95;227078;1234;138101;-64
2022/12/04 22:42:00;;;;;;;27.60;17.10;;;;;;;4.35;69.64;99607.21;227097;1234;138337;-65
2022/12/04 22:47:06;;;;;;;28.00;17.30;;;;;;;4.35;69.73;99612.50;226957;1250;137770;-66
2022/12/04 22:52:19;;;;;;;26.10;17.00;;;;;;;4.35;69.71;99595.97;226960;1235;137593;-63
2022/12/04 22:57:27;;;;;;;25.30;16.10;;;;;;;4.35;69.73;99596.52;226732;1233;138707;-63
2022/12/04 23:02:32;;;;;;;26.10;16.30;;;;;;;4.34;69.48;99597.05;226739;1237;138751;-63
2022/12/04 23:07:52;;;;;;;27.80;16.60;;;;;;;4.26;69.84;99595.33;227052;1237;140100;-64
2022/12/04 23:12:59;;;;;;;28.30;17.10;;;;;;;4.24;70.07;99601.17;226908;1234;138607;-63
2022/12/04 23:18:04;;;;;;;28.20;16.50;;;;;;;4.28;69.86;99590.36;227050;1241;139030;-64
2022/12/04 23:23:10;;;;;;;27.10;15.90;;;;;;;4.34;69.71;99590.02;227002;1234;138835;-63
2022/12/04 23:28:14;;;;;;;27.30;16.90;;;;;;;4.35;69.85;99588.60;227071;1234;138519;-63
2022/12/04 23:33:25;;;;;;;24.80;15.60;;;;;;;4.34;69.66;99586.33;227858;1231;138077;-64
2022/12/04 23:38:54;;;;;;;26.60;17.00;;;;;;;4.33;69.73;99580.55;226900;1237;138175;-64
2022/12/04 23:44:05;;;;;;;27.60;16.40;;;;;;;4.31;69.69;99574.33;226959;1241;138535;-63
2022/12/04 23:49:27;;;;;;;30.00;17.50;;;;;;;4.29;69.65;99574.02;227387;1248;138211;-63
2022/12/04 23:54:36;;;;;;;25.10;16.80;;;;;;;4.27;69.65;99575.30;227078;1245;138244;-63
2022/12/04 23:59:44;;;;;;;29.00;16.60;;;;;;;4.24;69.93;99582.23;226729;1226;138455;-62
